Time;durP1;ratioP1;P1;durP2;ratioP2;P2;SDS_P1;SDS_P2;PMS_P1;PMS_P2;Temp;Humidity;BMP_temperature;BMP_pressure;BME280_temperature;BME280_humidity;BME280_pressure;Samples;Min_cycle;Max_cycle;Signal;HPM_P1;HPM_P2
2022/09/24 00:00:34;;;;;;;;;0.00;0.00;;;;;;;;6157335;23;45402;-96
2022/09/24 00:03:00;;;;;;;;;0.00;0.00;;;;;;;;6157493;23;45384;-96
2022/09/24 00:05:25;;;;;;;;;0.00;0.00;;;;;;;;6157779;23;45425;-96
2022/09/24 00:07:50;;;;;;;;;2.67;2.67;;;;;;;;6157764;23;47234;-96
2022/09/24 00:10:16;;;;;;;;;0.00;0.00;;;;;;;;6157374;23;45414;-96
2022/09/24 00:12:41;;;;;;;;;0.00;0.00;;;;;;;;6157044;23;45331;-96
2022/09/24 00:15:06;;;;;;;;;0.00;0.00;;;;;;;;6156389;23;45345;-96
2022/09/24 00:17:32;;;;;;;;;0.00;0.00;;;;;;;;6156543;23;47284;-96
2022/09/24 00:19:57;;;;;;;;;0.00;0.00;;;;;;;;6156559;23;45190;-96
2022/09/24 00:22:22;;;;;;;;;0.00;0.00;;;;;;;;6156817;23;45192;-96
2022/09/24 00:27:32;;;;;;;;;0.00;0.00;;;;;;;;6184389;23;45189;-96
2022/09/24 00:29:57;;;;;;;;;0.00;0.00;;;;;;;;6156960;23;46037;-96
2022/09/24 00:32:23;;;;;;;;;0.00;0.00;;;;;;;;6156906;23;45362;-96
2022/09/24 00:34:50;;;;;;;;;0.00;0.00;;;;;;;;6156788;23;45366;-96
2022/09/24 00:37:18;;;;;;;;;0.00;0.00;;;;;;;;6157004;23;48086;-96
2022/09/24 00:39:44;;;;;;;;;0.00;0.00;;;;;;;;6156990;23;45341;-96
2022/09/24 00:42:10;;;;;;;;;0.00;0.00;;;;;;;;6155970;23;45386;-96
2022/09/24 00:44:44;;;;;;;;;0.00;0.00;;;;;;;;6156855;23;45539;-96
2022/09/24 00:47:27;;;;;;;;;0.00;0.00;;;;;;;;6156186;23;48105;-95
2022/09/24 00:50:00;;;;;;;;;0.00;0.00;;;;;;;;6156491;23;45359;-96
2022/09/24 00:52:25;;;;;;;;;0.00;0.00;;;;;;;;6157353;23;45531;-96
2022/09/24 00:54:51;;;;;;;;;0.00;0.00;;;;;;;;6156727;23;45266;-96
2022/09/24 00:57:16;;;;;;;;;1.00;1.00;;;;;;;;6156359;23;47159;-96
2022/09/24 00:59:42;;;;;;;;;0.00;0.00;;;;;;;;6157167;23;45436;-96
2022/09/24 01:02:07;;;;;;;;;0.00;0.00;;;;;;;;6155893;23;45653;-96
2022/09/24 01:04:32;;;;;;;;;0.00;0.00;;;;;;;;6157092;23;45375;-96
2022/09/24 01:06:58;;;;;;;;;0.00;0.00;;;;;;;;6155971;23;47378;-95
2022/09/24 01:09:24;;;;;;;;;0.00;0.00;;;;;;;;6155935;23;45437;-95
2022/09/24 01:12:08;;;;;;;;;0.00;0.00;;;;;;;;6156006;23;45392;-95
2022/09/24 01:14:49;;;;;;;;;0.00;0.00;;;;;;;;6156673;23;45334;-96
2022/09/24 01:17:38;;;;;;;;;0.00;0.00;;;;;;;;6156182;23;47110;-96
2022/09/24 01:20:12;;;;;;;;;0.00;0.00;;;;;;;;6156824;23;45693;-96
2022/09/24 01:22:46;;;;;;;;;0.00;0.00;;;;;;;;6158267;23;45441;-96
2022/09/24 01:25:18;;;;;;;;;0.00;0.00;;;;;;;;6159066;23;44725;-96
2022/09/24 01:27:54;;;;;;;;;0.00;0.00;;;;;;;;6162049;23;47154;-96
2022/09/24 01:30:19;;;;;;;;;0.00;0.00;;;;;;;;6164983;23;45180;-96
2022/09/24 01:32:51;;;;;;;;;0.00;0.00;;;;;;;;6165913;23;45347;-96
2022/09/24 01:35:37;;;;;;;;;0.00;0.00;;;;;;;;6167685;23;45366;-95
2022/09/24 01:38:05;;;;;;;;;0.00;0.00;;;;;;;;6174578;23;48032;-96
2022/09/24 01:40:35;;;;;;;;;0.00;0.00;;;;;;;;6199780;23;44704;-96
2022/09/24 01:43:24;;;;;;;;;0.00;0.00;;;;;;;;6179837;23;45627;-96
2022/09/24 01:45:52;;;;;;;;;0.00;0.00;;;;;;;;6174734;23;45521;-96
2022/09/24 01:48:20;;;;;;;;;16.67;16.67;;;;;;;;6179102;23;46522;-96
2022/09/24 01:51:04;;;;;;;;;0.00;0.00;;;;;;;;6178190;23;44683;-96
2022/09/24 01:53:39;;;;;;;;;0.00;0.00;;;;;;;;6180437;23;44767;-96
2022/09/24 01:56:08;;;;;;;;;0.00;0.00;;;;;;;;6175725;23;44898;-96
2022/09/24 01:58:51;;;;;;;;;0.00;0.00;;;;;;;;6201503;23;45607;-96
2022/09/24 02:01:21;;;;;;;;;0.00;0.00;;;;;;;;6200230;23;44661;-96
2022/09/24 02:03:52;;;;;;;;;0.00;0.00;;;;;;;;6173366;23;45392;-96
2022/09/24 02:06:28;;;;;;;;;0.00;0.00;;;;;;;;6173736;23;45142;-96
2022/09/24 02:08:55;;;;;;;;;0.00;0.00;;;;;;;;6150016;23;46348;-96
2022/09/24 02:11:27;;;;;;;;;0.00;0.00;;;;;;;;6124941;23;45472;-96
2022/09/24 02:14:19;;;;;;;;;0.00;0.00;;;;;;;;6178096;23;45106;-96
2022/09/24 02:17:11;;;;;;;;;0.00;0.00;;;;;;;;6148529;23;44884;-96
2022/09/24 02:19:39;;;;;;;;;0.00;0.00;;;;;;;;6176673;23;45500;-96
2022/09/24 02:22:09;;;;;;;;;0.00;0.00;;;;;;;;6124190;23;44761;-96
2022/09/24 02:24:37;;;;;;;;;0.00;0.00;;;;;;;;6150493;23;44601;-96
2022/09/24 02:27:08;;;;;;;;;0.00;0.00;;;;;;;;6147004;23;44909;-96
2022/09/24 02:29:34;;;;;;;;;0.00;0.00;;;;;;;;6126816;23;46607;-96
2022/09/24 02:32:12;;;;;;;;;0.00;0.00;;;;;;;;6149672;23;44601;-96
2022/09/24 02:34:45;;;;;;;;;0.00;0.00;;;;;;;;6172002;23;44731;-96
2022/09/24 02:37:21;;;;;;;;;0.00;0.00;;;;;;;;6148872;23;45383;-96
2022/09/24 02:39:49;;;;;;;;;0.00;0.00;;;;;;;;6142701;23;45478;-96
2022/09/24 02:42:16;;;;;;;;;0.00;0.00;;;;;;;;6122911;23;44801;-96
2022/09/24 02:44:42;;;;;;;;;0.00;0.00;;;;;;;;6149313;23;44684;-96
2022/09/24 02:47:08;;;;;;;;;0.00;0.00;;;;;;;;6146526;23;44827;-96
2022/09/24 02:49:34;;;;;;;;;0.00;0.00;;;;;;;;6147475;23;46650;-96
2022/09/24 02:52:01;;;;;;;;;0.00;0.00;;;;;;;;6149562;23;44708;-96
2022/09/24 02:54:37;;;;;;;;;0.00;0.00;;;;;;;;6149855;23;44699;-96
2022/09/24 02:57:04;;;;;;;;;0.00;0.00;;;;;;;;6141432;23;45423;-96
2022/09/24 02:59:29;;;;;;;;;0.00;0.00;;;;;;;;6141144;23;47200;-96
2022/09/24 03:01:55;;;;;;;;;0.00;0.00;;;;;;;;6152347;23;44754;-96
2022/09/24 03:04:20;;;;;;;;;0.00;0.00;;;;;;;;6160568;23;45361;-96
2022/09/24 03:06:45;;;;;;;;;0.00;0.00;;;;;;;;6162586;23;45336;-96
2022/09/24 03:09:11;;;;;;;;;0.00;0.00;;;;;;;;6164221;23;47490;-96
2022/09/24 03:11:37;;;;;;;;;0.00;0.00;;;;;;;;6170973;23;44689;-96
2022/09/24 03:14:04;;;;;;;;;0.00;0.00;;;;;;;;6169497;23;45384;-96
2022/09/24 03:16:30;;;;;;;;;0.00;0.00;;;;;;;;6171572;23;44792;-96
2022/09/24 03:18:56;;;;;;;;;0.00;0.00;;;;;;;;6172094;23;45589;-96
2022/09/24 03:21:22;;;;;;;;;0.00;0.00;;;;;;;;6167657;23;45537;-95
2022/09/24 03:23:48;;;;;;;;;0.00;0.00;;;;;;;;6166625;23;45410;-96
2022/09/24 03:26:16;;;;;;;;;0.00;0.00;;;;;;;;6167247;23;44853;-96
2022/09/24 03:28:41;;;;;;;;;0.00;0.00;;;;;;;;6170614;23;47483;-96
2022/09/24 03:31:07;;;;;;;;;0.00;0.00;;;;;;;;6161848;23;45348;-96
2022/09/24 03:33:42;;;;;;;;;0.00;0.00;;;;;;;;6159855;23;45279;-96
2022/09/24 03:36:15;;;;;;;;;0.00;0.00;;;;;;;;6159597;23;45277;-96
2022/09/24 03:38:41;;;;;;;;;0.00;0.00;;;;;;;;6160026;23;47654;-96
2022/09/24 03:41:10;;;;;;;;;0.00;0.00;;;;;;;;6164962;23;46116;-96
2022/09/24 03:43:39;;;;;;;;;0.00;0.00;;;;;;;;6164251;23;45335;-96
2022/09/24 03:46:08;;;;;;;;;0.00;0.00;;;;;;;;6162397;23;45497;-96
2022/09/24 03:48:34;;;;;;;;;0.00;0.00;;;;;;;;6161541;23;46868;-96
2022/09/24 03:51:07;;;;;;;;;0.00;0.00;;;;;;;;6157386;23;45628;-96
2022/09/24 03:53:32;;;;;;;;;0.00;0.00;;;;;;;;6153936;23;45194;-95
2022/09/24 03:55:58;;;;;;;;;0.00;0.00;;;;;;;;6155077;23;44824;-96
2022/09/24 03:58:23;;;;;;;;;0.00;0.00;;;;;;;;6157455;23;47816;-96
2022/09/24 04:00:52;;;;;;;;;0.00;0.00;;;;;;;;6160698;23;45878;-96
2022/09/24 04:03:18;;;;;;;;;0.00;0.00;;;;;;;;6160529;23;45398;-96
2022/09/24 04:05:43;;;;;;;;;0.00;0.00;;;;;;;;6159828;23;45323;-96
2022/09/24 04:08:08;;;;;;;;;0.00;0.00;;;;;;;;6160143;23;47265;-96
2022/09/24 04:10:34;;;;;;;;;0.00;0.00;;;;;;;;6157640;23;45445;-96
2022/09/24 04:12:59;;;;;;;;;0.00;0.00;;;;;;;;6158892;23;45800;-96
2022/09/24 04:15:24;;;;;;;;;0.00;0.00;;;;;;;;6157472;23;45441;-95
2022/09/24 04:17:53;;;;;;;;;0.00;0.00;;;;;;;;6157820;23;48018;-96
2022/09/24 04:20:22;;;;;;;;;0.00;0.00;;;;;;;;6157345;23;45403;-96
2022/09/24 04:22:48;;;;;;;;;0.00;0.00;;;;;;;;6157181;23;45453;-96
2022/09/24 04:25:14;;;;;;;;;0.00;0.00;;;;;;;;6157075;23;45831;-95
2022/09/24 04:27:40;;;;;;;;;0.00;0.00;;;;;;;;6157463;23;47246;-96
2022/09/24 04:30:05;;;;;;;;;0.00;0.00;;;;;;;;6157186;23;45712;-95
2022/09/24 04:32:31;;;;;;;;;0.00;0.00;;;;;;;;6156496;23;45410;-96
2022/09/24 04:34:56;;;;;;;;;0.00;0.00;;;;;;;;6158458;23;45369;-96
2022/09/24 04:37:21;;;;;;;;;0.00;0.00;;;;;;;;6160105;23;47129;-96
2022/09/24 04:39:46;;;;;;;;;0.00;0.00;;;;;;;;6161283;23;45356;-96
2022/09/24 04:42:16;;;;;;;;;0.00;0.00;;;;;;;;6159641;23;45261;-96
2022/09/24 04:44:45;;;;;;;;;0.00;0.00;;;;;;;;6158273;23;45173;-96
2022/09/24 04:47:11;;;;;;;;;0.00;0.00;;;;;;;;6157172;23;47298;-96
2022/09/24 04:49:36;;;;;;;;;0.00;0.00;;;;;;;;6157646;23;45303;-96
2022/09/24 04:52:03;;;;;;;;;0.00;0.00;;;;;;;;6157451;23;45527;-96
2022/09/24 04:54:28;;;;;;;;;0.00;0.00;;;;;;;;6157667;23;45465;-96
2022/09/24 04:56:53;;;;;;;;;0.00;0.00;;;;;;;;6156495;23;47379;-96
2022/09/24 04:59:19;;;;;;;;;0.00;0.00;;;;;;;;6157375;23;46120;-96
2022/09/24 05:01:45;;;;;;;;;0.00;0.00;;;;;;;;6155514;23;45544;-96
2022/09/24 05:04:10;;;;;;;;;0.00;0.00;;;;;;;;6156648;23;45242;-96
2022/09/24 05:06:35;;;;;;;;;4.00;4.00;;;;;;;;6156490;23;46789;-96
2022/09/24 05:09:00;;;;;;;;;0.00;0.00;;;;;;;;6156428;23;45407;-96
2022/09/24 05:11:25;;;;;;;;;0.00;0.00;;;;;;;;6157323;23;45315;-94
2022/09/24 05:13:51;;;;;;;;;0.00;0.00;;;;;;;;6159125;23;45180;-96
2022/09/24 05:16:16;;;;;;;;;0.00;0.00;;;;;;;;6156987;23;47384;-95
2022/09/24 05:18:41;;;;;;;;;0.00;0.00;;;;;;;;6157775;23;45711;-95
2022/09/24 05:21:06;;;;;;;;;0.00;0.00;;;;;;;;6157413;23;45220;-95
2022/09/24 05:23:32;;;;;;;;;0.00;0.00;;;;;;;;6157545;23;45590;-96
2022/09/24 05:28:41;;;;;;;;;0.00;0.00;;;;;;;;6184234;23;45398;-95
2022/09/24 05:31:07;;;;;;;;;0.00;0.00;;;;;;;;6157969;23;45350;-96
2022/09/24 05:33:35;;;;;;;;;0.00;0.00;;;;;;;;6135185;23;45323;-95
2022/09/24 05:36:01;;;;;;;;;0.00;0.00;;;;;;;;6157933;23;47904;-95
2022/09/24 05:38:26;;;;;;;;;0.00;0.00;;;;;;;;6158842;23;45308;-95
2022/09/24 05:40:51;;;;;;;;;0.00;0.00;;;;;;;;6158020;23;45680;-96
2022/09/24 05:43:18;;;;;;;;;0.00;0.00;;;;;;;;6158010;23;45512;-95
2022/09/24 05:45:47;;;;;;;;;0.00;0.00;;;;;;;;6157096;23;47589;-96
2022/09/24 05:48:13;;;;;;;;;0.00;0.00;;;;;;;;6157559;23;45605;-96
2022/09/24 05:50:38;;;;;;;;;0.00;0.00;;;;;;;;6157531;23;45410;-96
2022/09/24 05:53:04;;;;;;;;;0.00;0.00;;;;;;;;6157674;23;45500;-94
2022/09/24 05:55:29;;;;;;;;;0.00;0.00;;;;;;;;6157868;23;46767;-96
2022/09/24 05:57:54;;;;;;;;;0.00;0.00;;;;;;;;6159010;23;45810;-96
2022/09/24 06:00:20;;;;;;;;;0.00;0.00;;;;;;;;6158849;23;45444;-96
2022/09/24 06:02:45;;;;;;;;;0.00;0.00;;;;;;;;6159955;23;45337;-96
2022/09/24 06:05:11;;;;;;;;;0.00;0.00;;;;;;;;6164811;23;47355;-96
2022/09/24 06:07:36;;;;;;;;;0.00;0.00;;;;;;;;6168940;23;45251;-96
2022/09/24 06:10:01;;;;;;;;;0.00;0.00;;;;;;;;6175021;23;45035;-96
2022/09/24 06:12:29;;;;;;;;;0.00;0.00;;;;;;;;6201849;23;45486;-96
2022/09/24 06:15:04;;;;;;;;;0.00;0.00;;;;;;;;6223538;22;46466;-96
2022/09/24 06:17:30;;;;;;;;;0.00;0.00;;;;;;;;6201736;23;44666;-96
2022/09/24 06:19:56;;;;;;;;;0.00;0.00;;;;;;;;6202458;23;44722;-96
2022/09/24 06:22:27;;;;;;;;;0.00;0.00;;;;;;;;6167471;23;45501;-96
2022/09/24 06:24:52;;;;;;;;;0.00;0.00;;;;;;;;6178670;23;47315;-96
2022/09/24 06:27:18;;;;;;;;;0.00;0.00;;;;;;;;6158142;23;45289;-91
2022/09/24 06:29:43;;;;;;;;;0.00;0.00;;;;;;;;6154970;23;45432;-91
2022/09/24 06:32:08;;;;;;;;;0.00;0.00;;;;;;;;6154132;23;45543;-88
2022/09/24 06:34:34;;;;;;;;;0.00;0.00;;;;;;;;6181388;23;46057;-87
2022/09/24 06:36:59;;;;;;;;;0.00;0.00;;;;;;;;6181329;23;45329;-88
2022/09/24 06:39:25;;;;;;;;;0.00;0.00;;;;;;;;6154668;23;45259;-89
2022/09/24 06:41:51;;;;;;;;;0.00;0.00;;;;;;;;6180505;23;45228;-90
2022/09/24 06:44:18;;;;;;;;;0.00;0.00;;;;;;;;6181466;23;45657;-89
2022/09/24 06:46:43;;;;;;;;;0.00;0.00;;;;;;;;6178968;23;45430;-90
2022/09/24 06:49:08;;;;;;;;;0.00;0.00;;;;;;;;6179805;23;45505;-90
2022/09/24 06:51:33;;;;;;;;;0.00;0.00;;;;;;;;6185015;23;45413;-92
2022/09/24 06:53:58;;;;;;;;;0.00;0.00;;;;;;;;6185014;23;46555;-93
2022/09/24 06:56:23;;;;;;;;;0.00;0.00;;;;;;;;6156729;23;45320;-95
2022/09/24 06:58:49;;;;;;;;;0.00;0.00;;;;;;;;6158907;23;45429;-91
2022/09/24 07:01:14;;;;;;;;;0.00;0.00;;;;;;;;6206141;22;45438;-92
2022/09/24 07:03:39;;;;;;;;;0.00;0.00;;;;;;;;6156631;23;48542;-95
2022/09/24 07:06:05;;;;;;;;;0.00;0.00;;;;;;;;6182452;23;45413;-91
2022/09/24 07:08:30;;;;;;;;;0.00;0.00;;;;;;;;6182111;23;45496;-92
2022/09/24 07:10:55;;;;;;;;;0.00;0.00;;;;;;;;6155280;23;45361;-92
2022/09/24 07:13:21;;;;;;;;;0.00;0.00;;;;;;;;6206346;22;46971;-92
2022/09/24 07:15:47;;;;;;;;;0.00;0.00;;;;;;;;6154488;23;45539;-91
2022/09/24 07:18:12;;;;;;;;;0.00;0.00;;;;;;;;6183108;23;45566;-93
2022/09/24 07:20:38;;;;;;;;;0.00;0.00;;;;;;;;6182189;23;45367;-91
2022/09/24 07:23:04;;;;;;;;;0.00;0.00;;;;;;;;6155042;23;46980;-90
2022/09/24 07:25:29;;;;;;;;;0.00;0.00;;;;;;;;6180602;23;45372;-93
2022/09/24 07:27:54;;;;;;;;;0.00;0.00;;;;;;;;6204736;22;45251;-93
2022/09/24 07:30:19;;;;;;;;;0.00;0.00;;;;;;;;6206537;22;45669;-94
2022/09/24 07:32:44;;;;;;;;;0.00;0.00;;;;;;;;6184087;23;45561;-93
2022/09/24 07:35:10;;;;;;;;;0.00;0.00;;;;;;;;6207829;22;45248;-93
2022/09/24 07:37:35;;;;;;;;;0.00;0.00;;;;;;;;6160254;23;45145;-94
2022/09/24 07:40:00;;;;;;;;;0.00;0.00;;;;;;;;6162121;23;44805;-92
2022/09/24 07:42:26;;;;;;;;;0.00;0.00;;;;;;;;6186915;22;45293;-95
2022/09/24 07:44:52;;;;;;;;;0.00;0.00;;;;;;;;6184279;22;46980;-96
2022/09/24 07:47:17;;;;;;;;;0.00;0.00;;;;;;;;6169731;23;45369;-95
2022/09/24 07:49:43;;;;;;;;;0.00;0.00;;;;;;;;6159712;22;45216;-92
2022/09/24 07:52:10;;;;;;;;;0.00;0.00;;;;;;;;6181323;22;47779;-96
2022/09/24 07:54:35;;;;;;;;;0.00;0.00;;;;;;;;6167306;22;46345;-95
2022/09/24 07:57:01;;;;;;;;;0.00;0.00;;;;;;;;6191409;22;45128;-93
2022/09/24 07:59:26;;;;;;;;;0.00;0.00;;;;;;;;6221163;22;45363;-94
2022/09/24 08:01:57;;;;;;;;;0.00;0.00;;;;;;;;6223682;22;45152;-94
2022/09/24 08:04:22;;;;;;;;;0.00;0.00;;;;;;;;6197533;22;45254;-96
2022/09/24 08:06:49;;;;;;;;;0.00;0.00;;;;;;;;6200531;22;45259;-96
2022/09/24 08:09:15;;;;;;;;;0.00;0.00;;;;;;;;6197491;22;45288;-91
2022/09/24 08:11:40;;;;;;;;;0.00;0.00;;;;;;;;6188675;22;47047;-96
2022/09/24 08:14:05;;;;;;;;;0.00;0.00;;;;;;;;6222119;22;45227;-94
2022/09/24 08:16:31;;;;;;;;;0.00;0.00;;;;;;;;6197301;22;45212;-94
2022/09/24 08:18:59;;;;;;;;;0.00;0.00;;;;;;;;6191429;22;45355;-96
2022/09/24 08:21:25;;;;;;;;;0.00;0.00;;;;;;;;6187863;22;48088;-96
2022/09/24 08:23:50;;;;;;;;;0.00;0.00;;;;;;;;6186556;22;45287;-96
2022/09/24 08:26:15;;;;;;;;;0.00;0.00;;;;;;;;6186641;22;45317;-94
2022/09/24 08:28:41;;;;;;;;;0.00;0.00;;;;;;;;6189171;22;45297;-96
2022/09/24 08:31:07;;;;;;;;;0.00;0.00;;;;;;;;6189860;22;45451;-96
2022/09/24 08:33:33;;;;;;;;;0.00;0.00;;;;;;;;6197702;22;45259;-96
2022/09/24 08:35:59;;;;;;;;;0.00;0.00;;;;;;;;6200185;22;45330;-96
2022/09/24 08:38:24;;;;;;;;;0.00;0.00;;;;;;;;6198836;22;45229;-93
2022/09/24 08:41:03;;;;;;;;;0.00;0.00;;;;;;;;6188214;22;46914;-93
2022/09/24 08:43:29;;;;;;;;;0.00;0.00;;;;;;;;6213855;22;45290;-93
2022/09/24 08:48:43;;;;;;;;;0.00;0.00;;;;;;;;6213634;22;45502;-94
2022/09/24 08:51:13;;;;;;;;;0.00;0.00;;;;;;;;6187318;22;47256;-96
2022/09/24 08:53:48;;;;;;;;;0.00;0.00;;;;;;;;6187104;22;45554;-94
2022/09/24 08:56:17;;;;;;;;;0.00;0.00;;;;;;;;6186173;22;45772;-93
2022/09/24 08:58:49;;;;;;;;;0.00;0.00;;;;;;;;6214456;22;45309;-93
2022/09/24 09:01:20;;;;;;;;;0.00;0.00;;;;;;;;6215663;22;45695;-93
2022/09/24 09:04:05;;;;;;;;;0.00;0.00;;;;;;;;6212444;22;45327;-93
2022/09/24 09:06:48;;;;;;;;;0.00;0.00;;;;;;;;6214939;22;45294;-93
2022/09/24 09:09:15;;;;;;;;;0.00;0.00;;;;;;;;6187115;22;45403;-94
2022/09/24 09:11:44;;;;;;;;;0.00;0.00;;;;;;;;6186685;22;46383;-93
2022/09/24 09:14:16;;;;;;;;;0.00;0.00;;;;;;;;6186660;22;45347;-94
2022/09/24 09:16:45;;;;;;;;;0.00;0.00;;;;;;;;6213937;22;45335;-94
2022/09/24 09:19:13;;;;;;;;;0.00;0.00;;;;;;;;6213454;22;45319;-93
2022/09/24 09:21:40;;;;;;;;;0.00;0.00;;;;;;;;6212997;22;45681;-92
2022/09/24 09:24:13;;;;;;;;;0.00;0.00;;;;;;;;6186562;22;45279;-94
2022/09/24 09:26:38;;;;;;;;;0.00;0.00;;;;;;;;6215897;22;45279;-95
2022/09/24 09:29:04;;;;;;;;;0.00;0.00;;;;;;;;6189481;22;45177;-95
2022/09/24 09:31:30;;;;;;;;;0.00;0.00;;;;;;;;6189276;22;46755;-93
2022/09/24 09:33:59;;;;;;;;;0.00;0.00;;;;;;;;6215041;22;45149;-94
2022/09/24 09:36:34;;;;;;;;;0.00;0.00;;;;;;;;6212170;22;45525;-95
2022/09/24 09:39:02;;;;;;;;;0.00;0.00;;;;;;;;6214027;22;45316;-91
2022/09/24 09:41:27;;;;;;;;;0.00;0.00;;;;;;;;6213672;22;47203;-92
2022/09/24 09:43:58;;;;;;;;;0.00;0.00;;;;;;;;6216136;22;45440;-95
2022/09/24 09:46:28;;;;;;;;;0.00;0.00;;;;;;;;6186013;22;45200;-96
2022/09/24 09:48:59;;;;;;;;;0.00;0.00;;;;;;;;6187474;22;45332;-91
2022/09/24 09:51:25;;;;;;;;;0.00;0.00;;;;;;;;6213237;22;46468;-94
2022/09/24 09:54:01;;;;;;;;;0.00;0.00;;;;;;;;6188228;22;45393;-93
2022/09/24 09:56:31;;;;;;;;;0.00;0.00;;;;;;;;6185590;22;45430;-93
2022/09/24 09:59:05;;;;;;;;;0.00;0.00;;;;;;;;6192527;22;45435;-95
2022/09/24 10:01:32;;;;;;;;;0.00;0.00;;;;;;;;6221889;22;46421;-95
2022/09/24 10:04:01;;;;;;;;;0.00;0.00;;;;;;;;6217736;22;45242;-96
2022/09/24 10:06:28;;;;;;;;;0.00;0.00;;;;;;;;6214267;22;45805;-95
2022/09/24 10:16:29;;;;;;;;;0.00;0.00;;;;;;;;6205060;22;44754;-96
2022/09/24 10:34:27;;;;;;;;;0.00;0.00;;;;;;;;6175233;22;46311;-95
2022/09/24 10:42:02;;;;;;;;;0.00;0.00;;;;;;;;6179798;22;45988;-96
2022/09/24 10:44:37;;;;;;;;;0.00;0.00;;;;;;;;6168445;23;45219;-96
2022/09/24 10:47:12;;;;;;;;;0.00;0.00;;;;;;;;6167204;23;45786;-95
2022/09/24 10:49:50;;;;;;;;;6.33;6.33;;;;;;;;6168291;23;45323;-93
2022/09/24 10:52:25;;;;;;;;;0.00;0.00;;;;;;;;6190080;23;46418;-94
2022/09/24 10:54:56;;;;;;;;;0.00;0.00;;;;;;;;6170577;23;46009;-94
2022/09/24 10:57:30;;;;;;;;;0.00;0.00;;;;;;;;6163248;23;45282;-93
2022/09/24 10:59:55;;;;;;;;;0.00;0.00;;;;;;;;6157140;23;45372;-90
2022/09/24 11:02:30;;;;;;;;;0.00;0.00;;;;;;;;6180424;23;46116;-90
2022/09/24 11:04:57;;;;;;;;;0.00;0.00;;;;;;;;6154591;23;46273;-90
2022/09/24 11:07:28;;;;;;;;;0.00;0.00;;;;;;;;6154303;23;45404;-89
2022/09/24 11:09:59;;;;;;;;;0.00;0.00;;;;;;;;6154201;23;45441;-89
2022/09/24 11:12:34;;;;;;;;;0.00;0.00;;;;;;;;6204880;22;48388;-91
2022/09/24 11:15:03;;;;;;;;;0.00;0.00;;;;;;;;6181972;23;45326;-91
2022/09/24 11:17:32;;;;;;;;;0.00;0.00;;;;;;;;6153909;23;45304;-92
2022/09/24 11:20:11;;;;;;;;;0.00;0.00;;;;;;;;6160111;23;45510;-91
2022/09/24 11:22:49;;;;;;;;;0.00;0.00;;;;;;;;6157504;23;47390;-92
2022/09/24 11:25:32;;;;;;;;;0.00;0.00;;;;;;;;6159321;23;45272;-96
2022/09/24 11:28:01;;;;;;;;;0.00;0.00;;;;;;;;6157959;23;45339;-93
2022/09/24 11:30:33;;;;;;;;;0.00;0.00;;;;;;;;6155335;23;45395;-93
2022/09/24 11:33:00;;;;;;;;;0.00;0.00;;;;;;;;6154215;23;47336;-92
2022/09/24 11:35:44;;;;;;;;;0.00;0.00;;;;;;;;6155136;23;45505;-93
2022/09/24 11:38:21;;;;;;;;;0.00;0.00;;;;;;;;6157722;23;45383;-93
2022/09/24 11:41:05;;;;;;;;;1.00;1.00;;;;;;;;6155305;23;45375;-91
2022/09/24 11:43:31;;;;;;;;;0.00;0.00;;;;;;;;6154258;23;47359;-93
2022/09/24 11:46:14;;;;;;;;;0.00;0.00;;;;;;;;6179954;23;45581;-89
2022/09/24 11:48:45;;;;;;;;;0.00;0.00;;;;;;;;6154135;23;45369;-87
2022/09/24 11:51:10;;;;;;;;;0.00;0.00;;;;;;;;6180785;23;45319;-92
2022/09/24 11:53:50;;;;;;;;;0.00;0.00;;;;;;;;6153852;23;48359;-90
2022/09/24 11:56:16;;;;;;;;;0.00;0.00;;;;;;;;6204840;22;45400;-93
2022/09/24 11:58:50;;;;;;;;;0.00;0.00;;;;;;;;6181813;23;45316;-91
2022/09/24 12:01:19;;;;;;;;;0.00;0.00;;;;;;;;6157067;23;45373;-96
2022/09/24 12:04:03;;;;;;;;;0.00;0.00;;;;;;;;6193918;23;45299;-95
2022/09/24 12:06:37;;;;;;;;;0.00;0.00;;;;;;;;6159925;23;45520;-94
2022/09/24 12:09:19;;;;;;;;;0.00;0.00;;;;;;;;6154146;23;45410;-92
2022/09/24 12:11:47;;;;;;;;;0.00;0.00;;;;;;;;6187580;23;45561;-93
2022/09/24 12:14:32;;;;;;;;;0.00;0.00;;;;;;;;6160446;23;48274;-95
2022/09/24 12:17:01;;;;;;;;;0.00;0.00;;;;;;;;6147365;23;45483;-93
2022/09/24 12:19:45;;;;;;;;;0.00;0.00;;;;;;;;6184313;23;45379;-92
2022/09/24 12:22:10;;;;;;;;;0.00;0.00;;;;;;;;6205252;22;45525;-93
2022/09/24 12:24:43;;;;;;;;;0.00;0.00;;;;;;;;6181974;23;45601;-93
2022/09/24 12:27:18;;;;;;;;;0.00;0.00;;;;;;;;6154705;23;45415;-92
2022/09/24 12:32:54;;;;;;;;;0.00;0.00;;;;;;;;6180172;23;45315;-92
2022/09/24 12:35:38;;;;;;;;;0.00;0.00;;;;;;;;6181468;23;46127;-91
2022/09/24 12:38:07;;;;;;;;;0.00;0.00;;;;;;;;6155874;23;45824;-92
2022/09/24 12:40:50;;;;;;;;;0.00;0.00;;;;;;;;6182271;23;45374;-94
2022/09/24 12:43:24;;;;;;;;;0.00;0.00;;;;;;;;6157519;23;45564;-94
2022/09/24 12:46:01;;;;;;;;;0.00;0.00;;;;;;;;6204503;22;47127;-92
2022/09/24 12:48:27;;;;;;;;;0.00;0.00;;;;;;;;6181136;23;45347;-93
2022/09/24 12:50:58;;;;;;;;;0.00;0.00;;;;;;;;6181166;23;45355;-91
2022/09/24 12:53:26;;;;;;;;;0.00;0.00;;;;;;;;6180791;23;45426;-92
2022/09/24 12:55:57;;;;;;;;;0.00;0.00;;;;;;;;6180384;23;46259;-91
2022/09/24 12:58:34;;;;;;;;;1.00;0.00;;;;;;;;6154147;23;46167;-91
2022/09/24 13:01:10;;;;;;;;;0.00;0.00;;;;;;;;6178610;23;45359;-91
2022/09/24 13:03:37;;;;;;;;;0.00;0.00;;;;;;;;6153971;23;45548;-90
2022/09/24 13:06:02;;;;;;;;;0.00;0.00;;;;;;;;6180347;23;46310;-94
2022/09/24 13:08:38;;;;;;;;;0.00;0.00;;;;;;;;6156100;23;45343;-96
2022/09/24 13:11:23;;;;;;;;;0.00;0.00;;;;;;;;6182203;23;45368;-96
2022/09/24 13:14:11;;;;;;;;;0.00;0.00;;;;;;;;6207730;22;45260;-95
2022/09/24 13:16:38;;;;;;;;;0.00;0.00;;;;;;;;6168394;23;46470;-94
2022/09/24 13:19:06;;;;;;;;;0.00;0.00;;;;;;;;6153232;23;45356;-91
2022/09/24 13:21:31;;;;;;;;;0.00;0.00;;;;;;;;6153395;23;45428;-91
2022/09/24 13:23:57;;;;;;;;;0.00;0.00;;;;;;;;6154007;23;45415;-93
2022/09/24 13:26:25;;;;;;;;;0.00;0.00;;;;;;;;6153672;23;46974;-91
2022/09/24 13:28:56;;;;;;;;;0.00;0.00;;;;;;;;6180597;23;45299;-92
2022/09/24 13:31:28;;;;;;;;;0.00;0.00;;;;;;;;6153474;23;45339;-93
2022/09/24 13:34:08;;;;;;;;;0.00;0.00;;;;;;;;6181274;23;45359;-91
2022/09/24 13:36:52;;;;;;;;;0.00;0.00;;;;;;;;6153826;23;47255;-92
2022/09/24 13:39:23;;;;;;;;;0.00;0.00;;;;;;;;6154910;23;45300;-92
2022/09/24 13:42:07;;;;;;;;;0.00;0.00;;;;;;;;6181392;23;45247;-96
2022/09/24 13:44:38;;;;;;;;;0.00;0.00;;;;;;;;6181916;23;45216;-92
2022/09/24 13:47:03;;;;;;;;;0.00;0.00;;;;;;;;6153172;23;47970;-91
2022/09/24 13:49:29;;;;;;;;;0.00;0.00;;;;;;;;6155343;23;45614;-91
2022/09/24 13:51:58;;;;;;;;;0.00;0.00;;;;;;;;6205507;22;45299;-92
2022/09/24 13:54:35;;;;;;;;;0.00;0.00;;;;;;;;6182500;23;45332;-91
2022/09/24 13:57:13;;;;;;;;;0.00;0.00;;;;;;;;6204673;22;48045;-92
2022/09/24 13:59:38;;;;;;;;;0.00;0.00;;;;;;;;6156200;23;45809;-96
2022/09/24 14:02:16;;;;;;;;;0.00;0.00;;;;;;;;6206321;22;45310;-93
2022/09/24 14:04:42;;;;;;;;;0.00;0.00;;;;;;;;6156554;23;45513;-92
2022/09/24 14:07:07;;;;;;;;;0.00;0.00;;;;;;;;6156614;23;47436;-92
2022/09/24 14:09:34;;;;;;;;;0.00;0.00;;;;;;;;6182605;23;45374;-94
2022/09/24 14:12:01;;;;;;;;;0.00;0.00;;;;;;;;6182373;23;45328;-93
2022/09/24 14:14:28;;;;;;;;;0.00;0.00;;;;;;;;6156760;23;45354;-92
2022/09/24 14:16:56;;;;;;;;;0.00;0.00;;;;;;;;6155839;23;47048;-95
2022/09/24 14:19:22;;;;;;;;;0.00;0.00;;;;;;;;6157459;23;45929;-92
2022/09/24 14:21:56;;;;;;;;;0.00;0.00;;;;;;;;6184669;23;45319;-92
2022/09/24 14:24:27;;;;;;;;;0.00;0.00;;;;;;;;6211184;22;45171;-94
2022/09/24 14:27:00;;;;;;;;;0.00;0.00;;;;;;;;6187099;23;45801;-95
2022/09/24 14:29:28;;;;;;;;;0.00;0.00;;;;;;;;6159036;23;45447;-92
2022/09/24 14:31:58;;;;;;;;;0.00;0.00;;;;;;;;6166349;23;45301;-90
2022/09/24 14:34:33;;;;;;;;;0.00;0.00;;;;;;;;6216360;22;45465;-94
2022/09/24 14:37:06;;;;;;;;;0.00;0.00;;;;;;;;6183827;23;45670;-91
2022/09/24 14:39:36;;;;;;;;;0.00;0.00;;;;;;;;6154773;23;46275;-89
2022/09/24 14:42:07;;;;;;;;;0.00;0.00;;;;;;;;6158413;23;45346;-95
2022/09/24 14:44:32;;;;;;;;;0.67;0.00;;;;;;;;6160805;23;45330;-92
2022/09/24 14:46:58;;;;;;;;;0.00;0.00;;;;;;;;6161701;23;46981;-92
2022/09/24 14:49:23;;;;;;;;;0.00;0.00;;;;;;;;6164177;23;45180;-94
2022/09/24 14:51:53;;;;;;;;;0.00;0.00;;;;;;;;6177725;22;45249;-94
2022/09/24 14:54:22;;;;;;;;;0.00;0.00;;;;;;;;6198372;22;44678;-95
2022/09/24 14:56:47;;;;;;;;;0.00;0.00;;;;;;;;6186498;23;45385;-95
2022/09/24 14:59:13;;;;;;;;;0.00;0.00;;;;;;;;6151205;23;45901;-94
2022/09/24 15:01:38;;;;;;;;;0.00;0.00;;;;;;;;6157067;23;45404;-94
2022/09/24 15:04:06;;;;;;;;;0.00;0.00;;;;;;;;6155452;23;45307;-95
2022/09/24 15:06:34;;;;;;;;;0.00;0.00;;;;;;;;6156189;23;48239;-94
2022/09/24 15:08:59;;;;;;;;;0.00;0.00;;;;;;;;6157864;23;45310;-95
2022/09/24 15:11:28;;;;;;;;;0.00;0.00;;;;;;;;6185592;23;45579;-93
2022/09/24 15:13:57;;;;;;;;;0.00;0.00;;;;;;;;6183437;23;45264;-94
2022/09/24 15:16:27;;;;;;;;;0.00;0.00;;;;;;;;6155185;23;47260;-94
2022/09/24 15:19:05;;;;;;;;;0.00;0.00;;;;;;;;6155427;23;46036;-94
2022/09/24 15:21:30;;;;;;;;;0.00;0.00;;;;;;;;6183999;23;45464;-93
2022/09/24 15:23:55;;;;;;;;;0.00;0.00;;;;;;;;6208031;22;45616;-94
2022/09/24 15:26:27;;;;;;;;;0.00;0.00;;;;;;;;6188577;23;46133;-94
2022/09/24 15:28:54;;;;;;;;;0.00;0.00;;;;;;;;6159179;23;45484;-96
2022/09/24 15:31:20;;;;;;;;;0.00;0.00;;;;;;;;6221559;22;45300;-95
2022/09/24 15:33:45;;;;;;;;;0.00;0.00;;;;;;;;6158394;23;45234;-95